Time;durP1;ratioP1;P1;durP2;ratioP2;P2;SDS_P1;SDS_P2;PMS_P1;PMS_P2;Temp;Humidity;BMP_temperature;BMP_pressure;BME280_temperature;BME280_humidity;BME280_pressure;Samples;Min_cycle;Max_cycle;Signal;HPM_P1;HPM_P2
2023/05/29 00:02:14;;;;;;;;;9.67;8.67;;;;;19.08;63.98;101666.72;5057366;28;45333;-83
2023/05/29 00:04:40;;;;;;;;;9.00;9.00;;;;;19.12;64.00;101673.59;5038797;28;47945;-84
2023/05/29 00:07:05;;;;;;;;;9.67;8.00;;;;;19.12;63.16;101670.91;5042036;28;45262;-84
2023/05/29 00:09:31;;;;;;;;;9.33;9.33;;;;;19.02;62.97;101659.09;5057973;28;45360;-83
2023/05/29 00:11:56;;;;;;;;;9.67;8.67;;;;;19.07;63.29;101685.59;5042550;28;45324;-83
2023/05/29 00:14:23;;;;;;;;;13.00;9.00;;;;;18.91;63.54;101660.81;5039459;28;46392;-82
2023/05/29 00:16:49;;;;;;;;;8.33;7.67;;;;;18.99;63.76;101683.44;5035751;28;45436;-83
2023/05/29 00:19:16;;;;;;;;;12.00;11.00;;;;;18.96;63.63;101683.66;5060010;28;45374;-83
2023/05/29 00:21:42;;;;;;;;;11.33;10.00;;;;;18.91;64.12;101691.16;5040016;28;45536;-83
2023/05/29 00:24:07;;;;;;;;;12.00;10.00;;;;;18.89;64.14;101686.84;5041534;28;46940;-84
2023/05/29 00:26:33;;;;;;;;;14.00;9.00;;;;;18.71;64.09;101672.88;5042057;28;45363;-82
2023/05/29 00:28:58;;;;;;;;;9.67;8.67;;;;;18.72;64.28;101691.50;5059940;28;45424;-83
2023/05/29 00:31:24;;;;;;;;;10.00;8.33;;;;;18.70;64.33;101693.44;5058497;28;45256;-83
2023/05/29 00:33:49;;;;;;;;;13.00;7.00;;;;;18.63;64.07;101684.09;5057509;28;46494;-84
2023/05/29 00:36:16;;;;;;;;;10.00;8.00;;;;;18.72;64.83;101702.22;5034720;28;45710;-83
2023/05/29 00:38:41;;;;;;;;;14.00;11.00;;;;;18.68;64.92;101694.53;5051817;28;45698;-83
2023/05/29 00:41:06;;;;;;;;;13.00;10.67;;;;;18.51;64.62;101666.16;5041045;28;45316;-84
2023/05/29 00:43:32;;;;;;;;;11.00;8.00;;;;;18.61;64.21;101688.72;5040621;28;47516;-83
2023/05/29 00:45:58;;;;;;;;;11.00;9.00;;;;;18.44;64.82;101664.81;5041152;28;45519;-83
2023/05/29 00:48:25;;;;;;;;;9.67;5.67;;;;;18.13;64.81;101617.75;5031891;28;45420;-83
2023/05/29 00:50:50;;;;;;;;;13.67;11.33;;;;;18.32;65.22;101664.78;5035635;28;45749;-83
2023/05/29 00:53:16;;;;;;;;;7.67;7.00;;;;;18.34;64.92;101669.06;5049287;28;48298;-82
2023/05/29 00:55:41;;;;;;;;;11.00;9.00;;;;;18.37;65.49;101668.00;5057553;28;45318;-83
2023/05/29 00:58:07;;;;;;;;;9.67;9.00;;;;;18.30;64.78;101667.53;5040699;28;45361;-83
2023/05/29 01:00:34;;;;;;;;;10.00;9.00;;;;;18.27;65.48;101657.03;5039974;28;45511;-82
2023/05/29 01:03:02;;;;;;;;;13.33;9.33;;;;;18.31;64.90;101671.94;5057475;28;46008;-83
2023/05/29 01:05:28;;;;;;;;;9.00;9.00;;;;;18.32;65.93;101686.19;5059044;28;45321;-82
2023/05/29 01:07:54;;;;;;;;;12.00;10.67;;;;;18.20;66.28;101664.59;5039918;28;45670;-83
2023/05/29 01:10:20;;;;;;;;;11.00;9.67;;;;;18.28;65.85;101679.31;5040720;28;45439;-83
2023/05/29 01:12:59;;;;;;;;;9.67;8.67;;;;;18.23;65.71;101672.44;5037456;28;46783;-83
2023/05/29 01:15:36;;;;;;;;;11.00;9.67;;;;;18.21;65.88;101676.19;5058570;28;45259;-83
2023/05/29 01:18:12;;;;;;;;;9.33;8.00;;;;;18.19;65.71;101676.25;5040420;28;45329;-83
2023/05/29 01:20:47;;;;;;;;;10.00;8.00;;;;;18.17;65.73;101669.28;5039729;28;45555;-83
2023/05/29 01:23:24;;;;;;;;;8.33;5.00;;;;;18.14;66.04;101681.06;5058816;28;46197;-83
2023/05/29 01:26:08;;;;;;;;;9.33;8.67;;;;;18.13;65.54;101676.66;5056621;28;45360;-84
2023/05/29 01:28:41;;;;;;;;;10.00;8.00;;;;;18.01;65.12;101666.75;5041332;28;45316;-83
2023/05/29 01:31:15;;;;;;;;;10.33;9.00;;;;;17.99;66.34;101666.00;5039935;28;45273;-83
2023/05/29 01:33:51;;;;;;;;;10.33;9.00;;;;;17.82;65.89;101666.22;5041329;28;46356;-83
2023/05/29 01:36:16;;;;;;;;;10.00;10.00;;;;;17.69;66.36;101642.06;5053108;28;45325;-83
2023/05/29 01:38:42;;;;;;;;;7.33;7.00;;;;;17.87;66.37;101673.94;5055734;28;45468;-82
2023/05/29 01:41:07;;;;;;;;;7.67;7.67;;;;;17.83;66.66;101669.75;5055839;28;45396;-82
2023/05/29 01:43:33;;;;;;;;;13.00;11.00;;;;;17.70;67.33;101650.94;5057137;28;45549;-82
2023/05/29 01:45:59;;;;;;;;;10.00;9.00;;;;;17.71;66.41;101652.66;5061683;28;45351;-83
2023/05/29 01:48:28;;;;;;;;;7.00;7.00;;;;;17.27;67.32;101585.88;5060901;28;45415;-82
2023/05/29 01:50:55;;;;;;;;;8.00;7.00;;;;;17.22;68.21;101577.28;5060445;28;45519;-82
2023/05/29 01:53:20;;;;;;;;;15.00;12.00;;;;;17.53;68.68;101651.97;5041643;28;47198;-84
2023/05/29 01:55:46;;;;;;;;;10.67;9.00;;;;;17.37;68.22;101624.47;5058845;28;45312;-83
2023/05/29 01:58:13;;;;;;;;;10.67;9.67;;;;;17.45;68.26;101645.38;5030052;28;45390;-83
2023/05/29 02:00:42;;;;;;;;;12.67;10.33;;;;;17.33;68.26;101638.09;5040146;28;45395;-83
2023/05/29 02:03:07;;;;;;;;;10.33;9.00;;;;;17.31;69.84;101634.69;5038802;28;47460;-83
2023/05/29 02:05:32;;;;;;;;;11.67;10.00;;;;;17.05;69.21;101605.03;5040644;28;45305;-83
2023/05/29 02:07:58;;;;;;;;;8.00;8.00;;;;;17.59;68.91;101690.88;5058658;28;45330;-81
2023/05/29 02:10:26;;;;;;;;;10.33;8.67;;;;;17.56;69.22;101704.44;5058769;28;45577;-81
2023/05/29 02:12:52;;;;;;;;;11.00;11.00;;;;;17.33;69.48;101657.69;5040154;28;47269;-82
2023/05/29 02:15:17;;;;;;;;;13.33;11.33;;;;;17.16;69.62;101644.50;5058748;28;45671;-82
2023/05/29 02:17:44;;;;;;;;;10.67;10.00;;;;;17.27;69.46;101659.88;5055437;28;45380;-83
2023/05/29 02:20:12;;;;;;;;;10.00;9.00;;;;;16.91;69.72;101597.03;5056137;28;45397;-83
2023/05/29 02:22:37;;;;;;;;;9.33;9.33;;;;;17.03;70.40;101640.84;5037471;28;46495;-82
2023/05/29 02:25:06;;;;;;;;;10.67;9.00;;;;;17.40;69.95;101698.28;5032015;28;45489;-82
2023/05/29 02:27:32;;;;;;;;;11.67;9.67;;;;;17.09;70.23;101644.00;5030799;28;45510;-82
2023/05/29 02:30:00;;;;;;;;;14.00;11.67;;;;;16.91;71.54;101628.22;5057719;28;45507;-82
2023/05/29 02:32:27;;;;;;;;;10.67;9.00;;;;;16.82;70.91;101612.75;5057299;28;45533;-83
2023/05/29 02:34:54;;;;;;;;;10.33;8.67;;;;;16.92;71.58;101637.94;5030770;28;45473;-83
2023/05/29 02:37:27;;;;;;;;;11.67;9.67;;;;;17.01;70.71;101662.34;5028090;28;45541;-83
2023/05/29 02:39:52;;;;;;;;;9.67;8.33;;;;;16.78;70.85;101635.25;5034466;28;45602;-82
2023/05/29 02:42:17;;;;;;;;;10.67;10.67;;;;;16.76;71.90;101624.66;5045306;28;45574;-83
2023/05/29 02:44:43;;;;;;;;;12.67;11.00;;;;;17.10;72.75;101687.63;5057155;28;45368;-83
2023/05/29 02:47:08;;;;;;;;;17.33;13.00;;;;;16.54;73.06;101592.13;5058037;28;45311;-82
2023/05/29 02:49:34;;;;;;;;;15.67;10.67;;;;;16.86;73.19;101684.59;5056453;28;45564;-82
2023/05/29 02:51:59;;;;;;;;;14.33;12.33;;;;;16.47;73.51;101617.47;5055915;28;45475;-82
2023/05/29 02:54:27;;;;;;;;;11.00;9.00;;;;;16.70;73.27;101667.75;5038004;28;45655;-82
2023/05/29 02:56:56;;;;;;;;;9.67;9.67;;;;;16.90;74.91;101701.31;5039605;28;45442;-82
2023/05/29 02:59:21;;;;;;;;;9.00;9.00;;;;;16.48;74.65;101641.44;5053971;28;45451;-82
2023/05/29 03:01:54;;;;;;;;;11.67;8.67;;;;;16.30;74.09;101594.44;5056321;28;45504;-81
2023/05/29 03:04:19;;;;;;;;;12.33;10.67;;;;;16.70;74.76;101680.25;5059559;28;45587;-81
2023/05/29 03:06:45;;;;;;;;;14.67;10.33;;;;;16.84;74.90;101707.91;5042034;28;45899;-83
2023/05/29 03:09:10;;;;;;;;;13.33;11.00;;;;;16.59;75.40;101694.22;5059891;28;45500;-83
2023/05/29 03:11:44;;;;;;;;;8.67;7.33;;;;;16.20;75.37;101619.09;5042934;28;47181;-83
2023/05/29 03:14:10;;;;;;;;;13.00;10.00;;;;;16.33;75.83;101646.81;5059058;28;45423;-81
2023/05/29 03:16:35;;;;;;;;;12.00;11.00;;;;;16.28;75.28;101657.75;5047322;28;45506;-83
2023/05/29 03:19:01;;;;;;;;;16.67;10.00;;;;;16.63;75.67;101735.84;5052998;28;45599;-83
2023/05/29 03:21:35;;;;;;;;;13.67;12.67;;;;;16.01;76.98;101620.13;5056495;28;45392;-84
2023/05/29 03:24:01;;;;;;;;;12.00;10.00;;;;;16.00;77.37;101628.25;5051901;28;45649;-84
2023/05/29 03:26:26;;;;;;;;;12.00;11.00;;;;;16.24;77.19;101677.53;5042522;28;45498;-84
2023/05/29 03:28:57;;;;;;;;;13.33;12.33;;;;;15.96;76.96;101638.22;5062316;28;45415;-83
2023/05/29 03:31:23;;;;;;;;;10.67;8.67;;;;;16.27;77.64;101698.72;5042131;28;45534;-84
2023/05/29 03:33:49;;;;;;;;;13.00;11.67;;;;;16.08;77.42;101664.22;5063116;28;45534;-84
2023/05/29 03:36:16;;;;;;;;;13.00;12.33;;;;;16.11;79.82;101682.72;5043609;28;45484;-84
2023/05/29 03:38:43;;;;;;;;;11.67;11.00;;;;;15.78;78.38;101625.03;5044220;28;45566;-84
2023/05/29 03:41:08;;;;;;;;;13.00;12.33;;;;;15.64;78.52;101613.31;5042744;28;47481;-84
2023/05/29 03:43:33;;;;;;;;;13.67;12.00;;;;;16.30;79.69;101735.91;5044046;28;45506;-84
2023/05/29 03:45:59;;;;;;;;;11.67;10.67;;;;;15.97;78.73;101695.94;5045619;28;45293;-84
2023/05/29 03:48:24;;;;;;;;;12.33;11.33;;;;;15.83;79.33;101681.66;5059725;28;45626;-84
2023/05/29 03:50:49;;;;;;;;;10.33;9.67;;;;;15.77;79.64;101668.66;5059120;28;46488;-84
2023/05/29 03:53:15;;;;;;;;;14.00;11.33;;;;;15.84;80.98;101665.56;5060238;28;45523;-83
2023/05/29 03:55:40;;;;;;;;;16.33;12.33;;;;;15.65;80.60;101640.84;5041938;28;45427;-84
2023/05/29 03:58:06;;;;;;;;;18.67;13.33;;;;;15.88;80.81;101693.78;5058508;28;45477;-84
2023/05/29 04:00:34;;;;;;;;;19.67;13.33;;;;;15.95;80.79;101695.19;5061101;28;45509;-83
2023/05/29 04:03:00;;;;;;;;;14.00;12.67;;;;;15.95;80.20;101697.84;5058911;28;45530;-82
2023/05/29 04:05:31;;;;;;;;;12.00;12.00;;;;;15.94;80.47;101716.59;5059998;28;45470;-83
2023/05/29 04:07:56;;;;;;;;;12.33;11.67;;;;;15.84;81.62;101702.91;5034139;28;46209;-83
2023/05/29 04:10:22;;;;;;;;;11.00;11.00;;;;;15.59;80.74;101649.19;5059832;28;46672;-84
2023/05/29 04:12:47;;;;;;;;;10.00;9.33;;;;;15.77;81.17;101706.00;5059270;28;45376;-84
2023/05/29 04:15:12;;;;;;;;;13.00;11.00;;;;;15.61;81.41;101679.28;5034135;28;45330;-83
2023/05/29 04:17:38;;;;;;;;;20.00;13.33;;;;;15.53;81.27;101670.84;5051595;28;45455;-84
2023/05/29 04:20:08;;;;;;;;;17.00;12.67;;;;;15.67;81.68;101705.66;5044925;28;45574;-83
2023/05/29 04:22:39;;;;;;;;;13.33;12.00;;;;;15.49;80.93;101678.16;5041166;28;45471;-84
2023/05/29 04:25:05;;;;;;;;;13.00;13.00;;;;;15.58;81.39;101701.66;5050066;28;45302;-84
2023/05/29 04:27:37;;;;;;;;;13.00;11.00;;;;;16.08;82.45;101778.09;5051490;28;45431;-84
2023/05/29 04:30:07;;;;;;;;;11.33;10.67;;;;;15.88;80.60;101738.28;5055253;28;46555;-83
2023/05/29 04:32:33;;;;;;;;;16.33;13.67;;;;;15.72;81.75;101718.72;5057609;28;45640;-84
2023/05/29 04:35:02;;;;;;;;;15.00;14.33;;;;;15.58;81.17;101695.44;5059876;28;45313;-84
2023/05/29 04:37:35;;;;;;;;;12.00;12.00;;;;;15.64;81.75;101712.00;5057001;28;45236;-82
2023/05/29 04:40:01;;;;;;;;;16.00;11.00;;;;;15.49;82.40;101691.50;5036238;28;46157;-82
2023/05/29 04:42:27;;;;;;;;;17.33;12.00;;;;;15.66;82.04;101740.38;5040770;28;45484;-83
2023/05/29 04:44:53;;;;;;;;;18.67;16.00;;;;;15.61;83.33;101737.94;5042028;28;45357;-82
2023/05/29 04:47:26;;;;;;;;;22.33;16.00;;;;;15.77;81.77;101748.69;5039692;28;45414;-82
2023/05/29 04:49:53;;;;;;;;;17.00;16.33;;;;;15.55;82.14;101709.81;5059464;28;45419;-82
2023/05/29 04:52:18;;;;;;;;;19.33;15.00;;;;;15.71;82.87;101751.66;5056275;28;45455;-82
2023/05/29 04:54:47;;;;;;;;;21.67;16.00;;;;;15.73;81.75;101741.78;5041184;28;45703;-84
2023/05/29 04:57:15;;;;;;;;;14.33;14.33;;;;;15.58;82.44;101707.00;5059030;28;45455;-84
2023/05/29 04:59:48;;;;;;;;;12.67;12.00;;;;;16.08;80.59;101797.63;5059714;28;45330;-85
2023/05/29 05:02:13;;;;;;;;;19.00;14.67;;;;;15.76;81.83;101745.16;5059444;28;45380;-83
2023/05/29 05:04:39;;;;;;;;;16.67;15.00;;;;;15.73;81.78;101720.44;5041623;28;45251;-84
2023/05/29 05:07:12;;;;;;;;;15.00;12.67;;;;;15.70;81.49;101732.16;5040689;28;45447;-84
2023/05/29 05:09:43;;;;;;;;;16.00;16.00;;;;;15.68;80.35;101710.03;5041249;28;45659;-82
2023/05/29 05:12:08;;;;;;;;;19.00;16.33;;;;;15.68;80.74;101731.34;5039334;28;45368;-84
2023/05/29 05:14:36;;;;;;;;;15.00;12.67;;;;;15.69;81.44;101722.41;5055196;28;45378;-84
2023/05/29 05:17:01;;;;;;;;;20.00;15.67;;;;;16.09;80.71;101780.69;5060484;28;45349;-83
2023/05/29 05:19:29;;;;;;;;;24.33;17.67;;;;;15.95;80.35;101759.22;5059464;28;46544;-84
2023/05/29 05:21:54;;;;;;;;;16.00;14.67;;;;;15.78;80.15;101711.25;5059764;28;45435;-83
2023/05/29 05:24:25;;;;;;;;;21.00;16.33;;;;;15.92;80.54;101739.84;5061452;28;45487;-85
2023/05/29 05:26:50;;;;;;;;;16.33;14.33;;;;;16.22;80.36;101775.53;5062068;28;45446;-84
2023/05/29 05:29:19;;;;;;;;;14.67;13.00;;;;;16.30;79.96;101793.78;5062617;28;45529;-83
2023/05/29 05:31:45;;;;;;;;;18.67;15.33;;;;;16.36;79.42;101786.28;5060313;28;46871;-85
2023/05/29 05:34:13;;;;;;;;;21.67;19.33;;;;;16.10;78.88;101753.03;5059077;28;45677;-84
2023/05/29 05:36:39;;;;;;;;;16.67;15.33;;;;;16.05;78.10;101731.09;5057542;28;45377;-83
2023/05/29 05:39:05;;;;;;;;;16.00;16.00;;;;;16.64;80.09;101823.06;5037993;28;46652;-82
2023/05/29 05:41:31;;;;;;;;;19.33;16.00;;;;;16.20;79.22;101748.06;5045370;28;45670;-82
2023/05/29 05:43:58;;;;;;;;;18.00;15.00;;;;;16.28;77.60;101744.97;5053566;28;45492;-82
2023/05/29 05:46:29;;;;;;;;;16.33;15.33;;;;;16.84;77.89;101860.19;5058618;28;45324;-82
2023/05/29 05:48:57;;;;;;;;;21.33;16.00;;;;;16.36;78.22;101742.75;5048869;28;46143;-82
2023/05/29 05:51:25;;;;;;;;;20.67;16.00;;;;;16.38;77.49;101756.84;5050785;28;45562;-82
2023/05/29 05:53:51;;;;;;;;;20.00;18.33;;;;;16.55;78.17;101775.50;5039067;28;45316;-83
2023/05/29 05:56:28;;;;;;;;;18.00;17.00;;;;;16.57;77.60;101778.94;5057238;28;45482;-83
2023/05/29 05:59:00;;;;;;;;;20.67;18.00;;;;;16.54;75.40;101771.06;5039846;28;45573;-83
2023/05/29 06:01:26;;;;;;;;;20.00;17.00;;;;;17.15;74.89;101848.59;5039977;28;45335;-82
2023/05/29 06:03:52;;;;;;;;;16.67;16.00;;;;;16.72;75.79;101788.75;5033798;28;45525;-82
2023/05/29 06:06:18;;;;;;;;;18.67;16.33;;;;;16.67;76.50;101759.63;5058415;28;45402;-83
2023/05/29 06:08:46;;;;;;;;;16.33;12.33;;;;;17.15;76.14;101832.56;5056878;28;45846;-83
2023/05/29 06:11:12;;;;;;;;;19.67;15.67;;;;;17.14;76.50;101815.69;5056710;28;45365;-83
2023/05/29 06:13:37;;;;;;;;;22.33;18.00;;;;;17.10;75.49;101799.91;5039689;28;45488;-83
2023/05/29 06:16:03;;;;;;;;;18.67;14.67;;;;;16.94;75.63;101762.53;5037920;28;45441;-82
2023/05/29 06:18:28;;;;;;;;;20.33;17.67;;;;;17.29;75.53;101797.00;5056833;28;46348;-83
2023/05/29 06:21:01;;;;;;;;;20.67;19.33;;;;;17.55;74.43;101825.72;5039683;28;45363;-83
2023/05/29 06:23:26;;;;;;;;;17.67;17.67;;;;;17.69;73.35;101847.22;5038503;28;45427;-83
2023/05/29 06:26:01;;;;;;;;;21.00;18.00;;;;;17.31;72.66;101787.09;5056995;28;45422;-83
2023/05/29 06:28:28;;;;;;;;;22.00;17.00;;;;;17.52;72.49;101834.81;5044805;28;45507;-84
2023/05/29 06:30:59;;;;;;;;;21.33;19.00;;;;;17.48;72.85;101827.91;5056225;28;45323;-84
2023/05/29 06:33:24;;;;;;;;;23.33;17.67;;;;;17.30;73.95;101772.88;5056723;28;45475;-85
2023/05/29 06:35:50;;;;;;;;;18.33;17.00;;;;;17.76;71.75;101845.91;5037328;28;45296;-85
2023/05/29 06:38:15;;;;;;;;;18.33;17.00;;;;;17.45;71.31;101797.81;5041758;28;45864;-84
2023/05/29 06:40:40;;;;;;;;;14.67;14.67;;;;;17.54;72.69;101819.53;5042035;28;45395;-83
2023/05/29 06:43:06;;;;;;;;;20.67;17.67;;;;;17.40;71.43;101814.16;5062235;28;45357;-84
2023/05/29 06:45:46;;;;;;;;;18.33;18.00;;;;;17.37;71.34;101790.28;5046045;28;45505;-84
2023/05/29 06:48:11;;;;;;;;;14.67;12.67;;;;;17.94;71.34;101862.63;5041176;28;47874;-84
2023/05/29 06:50:37;;;;;;;;;14.33;12.33;;;;;17.74;71.06;101831.72;5058767;28;45646;-83
2023/05/29 06:53:05;;;;;;;;;18.33;14.67;;;;;17.83;71.36;101823.16;5060647;28;45535;-83
2023/05/29 06:55:30;;;;;;;;;18.67;16.67;;;;;17.80;71.16;101804.59;5042915;28;45515;-85
2023/05/29 06:57:56;;;;;;;;;20.33;17.33;;;;;18.11;70.06;101847.28;5043375;28;47940;-85
2023/05/29 07:00:22;;;;;;;;;18.00;14.67;;;;;18.21;69.94;101858.28;5040252;28;45464;-84
2023/05/29 07:02:50;;;;;;;;;15.33;13.67;;;;;17.86;70.02;101800.69;5046123;28;45705;-84
2023/05/29 07:05:21;;;;;;;;;18.00;16.67;;;;;18.33;69.09;101843.22;5046469;28;45558;-84
2023/05/29 07:08:13;;;;;;;;;16.67;15.33;;;;;18.18;69.36;101816.47;5042988;28;47053;-86
2023/05/29 07:10:38;;;;;;;;;16.33;15.33;;;;;18.15;68.75;101781.00;5063415;28;45266;-85
2023/05/29 07:13:06;;;;;;;;;20.67;17.00;;;;;18.44;68.93;101817.50;5065369;28;45273;-85
2023/05/29 07:15:34;;;;;;;;;21.33;16.67;;;;;18.33;68.59;101776.28;5048423;28;45316;-85
2023/05/29 07:18:11;;;;;;;;;17.00;15.33;;;;;18.59;66.99;101826.41;5040031;28;47849;-85
2023/05/29 07:20:40;;;;;;;;;14.33;13.67;;;;;18.51;67.81;101793.91;5030697;28;45668;-86
2023/05/29 07:23:06;;;;;;;;;17.33;17.33;;;;;18.57;66.29;101794.38;5040926;28;45699;-83
2023/05/29 07:25:32;;;;;;;;;19.33;18.33;;;;;18.91;67.07;101840.41;5060867;28;45521;-84
2023/05/29 07:27:57;;;;;;;;;20.00;20.00;;;;;19.23;66.35;101890.09;5061626;28;46392;-86
2023/05/29 07:30:23;;;;;;;;;19.67;17.00;;;;;18.85;65.57;101830.94;5042733;28;45654;-85
2023/05/29 07:32:49;;;;;;;;;16.33;16.33;;;;;19.07;67.05;101835.75;5037153;28;45537;-85
2023/05/29 07:35:15;;;;;;;;;16.67;16.00;;;;;19.51;66.47;101902.56;5035550;28;45538;-84
2023/05/29 07:37:41;;;;;;;;;20.67;19.67;;;;;19.15;65.57;101817.31;5039770;28;47367;-84
2023/05/29 07:40:15;;;;;;;;;18.33;18.33;;;;;19.25;64.90;101832.72;5042804;28;45373;-86
2023/05/29 07:42:41;;;;;;;;;16.00;16.00;;;;;19.24;65.12;101822.06;5044102;28;45293;-86
2023/05/29 07:45:06;;;;;;;;;21.67;20.67;;;;;19.74;65.04;101885.78;5044084;28;45489;-85
2023/05/29 07:47:35;;;;;;;;;21.33;17.00;;;;;19.38;64.61;101805.91;5060077;28;45297;-85
2023/05/29 07:50:00;;;;;;;;;29.67;21.00;;;;;19.44;63.77;101842.22;5059869;28;45376;-85
2023/05/29 07:52:29;;;;;;;;;16.00;15.33;;;;;19.36;63.65;101793.56;5061209;28;46575;-85
2023/05/29 07:54:57;;;;;;;;;19.33;18.00;;;;;19.36;64.89;101782.84;5041137;28;45508;-84
2023/05/29 07:57:26;;;;;;;;;17.33;15.67;;;;;19.78;63.45;101838.97;5060377;28;46211;-85
2023/05/29 07:59:52;;;;;;;;;24.00;19.00;;;;;20.20;63.14;101895.06;5059249;28;45299;-85
2023/05/29 08:02:17;;;;;;;;;21.67;18.67;;;;;19.93;62.29;101842.41;5042329;28;45479;-85
2023/05/29 08:04:58;;;;;;;;;18.33;13.67;;;;;20.00;61.64;101841.00;5042567;28;45675;-87
2023/05/29 08:07:30;;;;;;;;;22.00;19.00;;;;;19.87;61.51;101806.09;5042096;28;47062;-86
2023/05/29 08:09:56;;;;;;;;;16.67;15.67;;;;;20.21;60.96;101879.81;5040836;28;45634;-86
2023/05/29 08:15:14;;;;;;;;;16.67;12.00;;;;;20.39;60.41;101848.97;5060691;28;45535;-87
2023/05/29 08:17:39;;;;;;;;;15.67;14.67;;;;;20.78;61.59;101901.69;5060195;28;45479;-86
2023/05/29 08:20:06;;;;;;;;;20.67;18.67;;;;;20.66;60.71;101857.75;5038939;28;45503;-85
2023/05/29 08:22:36;;;;;;;;;18.33;16.67;;;;;20.46;61.27;101798.31;5034257;28;45427;-85
2023/05/29 08:25:06;;;;;;;;;21.67;20.67;;;;;20.95;59.78;101871.75;5038167;28;45570;-81
2023/05/29 08:27:31;;;;;;;;;18.67;18.00;;;;;20.62;59.41;101821.28;5056905;28;46553;-81
2023/05/29 08:29:57;;;;;;;;;24.67;21.67;;;;;20.58;59.65;101816.28;5058529;28;45448;-82
2023/05/29 08:32:23;;;;;;;;;19.33;14.00;;;;;20.58;59.55;101841.28;5059767;28;45486;-83
2023/05/29 08:34:54;;;;;;;;;18.00;17.33;;;;;20.54;58.45;101814.78;5038550;28;45346;-84
2023/05/29 08:37:28;;;;;;;;;18.33;13.00;;;;;20.81;59.74;101836.94;5038536;28;46911;-83
2023/05/29 08:40:07;;;;;;;;;19.33;18.67;;;;;20.76;58.63;101794.25;5057634;28;45329;-82
2023/05/29 08:42:39;;;;;;;;;21.33;18.67;;;;;21.09;58.60;101850.09;5063124;28;45440;-84
2023/05/29 08:45:12;;;;;;;;;19.67;18.00;;;;;21.21;59.60;101856.38;5045023;28;45244;-83
2023/05/29 08:47:43;;;;;;;;;20.67;18.67;;;;;21.32;57.95;101839.44;5062613;28;46618;-84
2023/05/29 08:50:09;;;;;;;;;19.67;18.33;;;;;21.48;57.96;101857.00;5044340;28;45753;-84
2023/05/29 08:52:38;;;;;;;;;24.00;20.33;;;;;21.47;56.66;101849.03;5062274;28;45411;-83
2023/05/29 08:55:05;;;;;;;;;21.33;20.67;;;;;21.55;56.48;101842.09;5047357;28;45293;-84
2023/05/29 08:57:30;;;;;;;;;19.33;19.33;;;;;21.52;56.15;101815.41;5050606;28;45315;-82
2023/05/29 08:59:57;;;;;;;;;18.67;18.33;;;;;21.82;56.08;101841.81;5056281;28;45274;-83
2023/05/29 09:02:23;;;;;;;;;21.33;21.00;;;;;21.61;57.26;101813.84;5042507;28;45239;-81
2023/05/29 09:04:54;;;;;;;;;20.33;16.00;;;;;21.79;56.63;101831.28;5058451;28;45284;-80
2023/05/29 09:07:49;;;;;;;;;20.33;19.00;;;;;21.89;56.59;101836.81;5036038;28;45752;-82
2023/05/29 09:10:30;;;;;;;;;;;;;;;;;;;;;
2023/05/29 09:13:03;;;;;;;;;19.00;13.67;;;;;21.92;55.31;101796.19;5049395;28;67618;-80
2023/05/29 09:15:39;;;;;;;;;22.00;18.00;;;;;22.27;56.78;101834.66;5036183;28;45412;-82
2023/05/29 09:18:05;;;;;;;;;23.00;18.00;;;;;22.45;55.60;101838.56;5055363;28;47042;-81
2023/05/29 09:20:44;;;;;;;;;20.00;13.00;;;;;22.23;55.12;101796.31;5034897;28;45633;-83
2023/05/29 09:23:19;;;;;;;;;18.00;16.67;;;;;22.53;54.16;101827.19;5037583;28;45238;-82
2023/05/29 09:26:02;;;;;;;;;23.00;21.33;;;;;22.36;53.51;101808.81;5052725;28;45321;-81
2023/05/29 09:28:36;;;;;;;;;17.00;17.00;;;;;23.05;53.66;101902.91;5055845;28;45869;-84
2023/05/29 09:31:17;;;;;;;;;17.00;16.33;;;;;23.17;53.47;101904.59;5057068;28;45511;-82
2023/05/29 09:33:50;;;;;;;;;20.00;19.00;;;;;23.10;54.00;101860.19;5039473;28;45405;-83
2023/05/29 09:36:34;;;;;;;;;22.33;19.33;;;;;23.30;51.90;101912.53;5039184;28;45615;-83
2023/05/29 09:39:29;;;;;;;;;23.67;20.00;;;;;22.80;53.46;101806.94;5039798;28;47097;-81
2023/05/29 09:42:20;;;;;;;;;;;;;;;;;;;;;
2023/05/29 09:45:09;;;;;;;;;;;;;;;;;;;;;
2023/05/29 09:47:41;;;;;;;;;18.67;18.67;;;;;23.05;52.78;101827.34;5046578;28;74112;-82
2023/05/29 09:50:27;;;;;;;;;15.33;15.00;;;;;23.43;52.12;101880.84;5053081;28;46665;-85
2023/05/29 09:52:53;;;;;;;;;22.67;21.67;;;;;23.27;53.08;101829.94;5050921;28;45408;-84
2023/05/29 09:55:23;;;;;;;;;21.33;20.00;;;;;23.41;53.16;101822.56;5030197;28;45294;-84
2023/05/29 09:57:59;;;;;;;;;21.33;21.33;;;;;23.47;53.32;101797.72;5058693;28;45340;-85
2023/05/29 10:00:34;;;;;;;;;17.67;16.00;;;;;23.64;52.40;101829.56;5036483;28;45909;-84
2023/05/29 10:03:00;;;;;;;;;18.33;17.00;;;;;24.12;52.95;101901.03;5047326;28;45432;-84
2023/05/29 10:05:28;;;;;;;;;16.67;13.33;;;;;23.81;51.09;101854.16;5041128;28;45376;-84
2023/05/29 10:08:17;;;;;;;;;19.33;17.00;;;;;23.70;50.65;101831.72;5037467;28;45788;-84
2023/05/29 10:11:01;;;;;;;;;14.67;14.33;;;;;23.75;52.53;101792.53;5040579;28;46996;-84
2023/05/29 10:13:49;;;;;;;;;;;;;;;;;;;;;
2023/05/29 10:16:17;;;;;;;;;19.67;17.67;;;;;24.36;52.35;101895.34;5058232;28;67693;-84
2023/05/29 10:18:50;;;;;;;;;16.00;14.00;;;;;24.09;48.87;101855.31;5039598;28;45757;-85
2023/05/29 10:21:17;;;;;;;;;21.00;18.33;;;;;23.66;50.02;101809.53;5058231;28;45857;-85
2023/05/29 10:23:47;;;;;;;;;16.00;16.00;;;;;24.07;50.12;101853.72;5058620;28;45319;-85
2023/05/29 10:26:21;;;;;;;;;18.67;17.33;;;;;23.98;49.22;101817.56;5060652;28;45296;-84
2023/05/29 10:28:58;;;;;;;;;17.33;15.33;;;;;24.16;49.33;101834.88;5040255;28;45441;-85
2023/05/29 10:31:33;;;;;;;;;18.00;14.67;;;;;24.38;49.87;101865.47;5057802;28;45401;-84
2023/05/29 10:34:28;;;;;;;;;15.33;15.33;;;;;24.42;50.16;101851.50;5047901;28;45399;-85
2023/05/29 10:37:12;;;;;;;;;16.00;14.00;;;;;24.69;50.86;101864.44;5039025;28;45492;-86
2023/05/29 10:39:41;;;;;;;;;13.00;12.33;;;;;24.71;49.61;101844.34;5035386;28;45467;-87
2023/05/29 10:42:43;;;;;;;;;21.67;17.33;;;;;24.94;49.25;101863.94;5043019;28;46620;-85
2023/05/29 10:45:21;;;;;;;;;15.67;14.33;;;;;24.94;48.12;101863.09;5059124;28;45256;-86
2023/05/29 10:47:46;;;;;;;;;17.67;16.67;;;;;24.67;48.01;101804.19;5036428;28;45430;-85
2023/05/29 10:50:12;;;;;;;;;15.00;15.00;;;;;24.58;47.77;101792.34;5037014;28;45586;-85
2023/05/29 10:52:45;;;;;;;;;17.00;16.00;;;;;24.41;48.86;101781.34;5055869;28;46299;-84
2023/05/29 10:55:11;;;;;;;;;18.33;14.00;;;;;24.57;47.85;101789.78;5058404;28;45559;-85
2023/05/29 10:57:48;;;;;;;;;22.00;19.67;;;;;24.83;48.57;101829.75;5044935;28;45344;-84
2023/05/29 11:00:18;;;;;;;;;19.33;17.33;;;;;25.09;48.48;101851.75;5039573;28;45459;-84
2023/05/29 11:02:45;;;;;;;;;13.67;13.67;;;;;24.82;47.76;101792.88;5036313;28;45391;-84
2023/05/29 11:05:24;;;;;;;;;11.67;11.67;;;;;24.90;47.46;101810.25;5036747;28;45559;-84
2023/05/29 11:08:06;;;;;;;;;14.00;13.00;;;;;24.95;48.60;101797.16;5029608;28;45456;-84
2023/05/29 11:10:52;;;;;;;;;16.00;14.00;;;;;25.28;48.66;101821.09;5022992;28;45322;-85
2023/05/29 11:13:40;;;;;;;;;14.33;14.33;;;;;25.18;46.79;101780.50;5053116;28;46191;-84
2023/05/29 11:16:30;;;;;;;;;19.00;16.33;;;;;25.62;47.19;101860.31;5040219;28;45368;-84
2023/05/29 11:18:57;;;;;;;;;20.67;15.33;;;;;25.45;46.58;101827.66;5045907;28;45373;-83
2023/05/29 11:21:31;;;;;;;;;17.33;15.00;;;;;25.67;46.75;101857.19;5054379;28;45364;-82
2023/05/29 11:24:06;;;;;;;;;11.67;11.67;;;;;25.62;47.14;101829.69;5040762;28;45731;-83
2023/05/29 11:26:32;;;;;;;;;14.33;13.33;;;;;25.83;46.01;101839.34;5060254;28;45356;-83
2023/05/29 11:29:04;;;;;;;;;14.33;14.00;;;;;25.61;46.18;101806.28;5061482;28;45505;-85
2023/05/29 11:31:36;;;;;;;;;15.33;12.33;;;;;25.73;46.30;101824.09;5043302;28;45420;-85